الصفحة الرئيسية
METAR-TAF:

METAR-TAF

مطار :

مطار بالما دي مايوركا

بالما دي مايوركا, إسبانيا

دائرة عرض: 39-33N, خط طول: 002-44E, ارتفاع: 4 متر

مراقبة الطقس الحالي

تاريخ ووقت الإصدار 22 دقيقة قبل الساعة 00:00UTC
ريح 2 عقدةمن اتجاهات متغيرة
درجة الحرارة 21°درجة مئوية
الرطوبة 88%
ضغط 1017 hPa
الرؤية 10 كم أو أكثر
غيوم قليلة على ارتفاع 3000 قدم

METAR: LEPA 180000Z VRB02KT 9999 FEW030 21/19 Q1017 NOSIG

زمن: 02:22 (00:22 UTC)

توقعات

تاريخ ووقت الإصدار 1ساعة و 22 دقيقة قبل الساعة 23:00UTC
التوقعات صالحة من18 الساعة 00 UTC إلى 18 الساعة 24 UTC
ريح 9 عقدة من الشرق
الرؤية 10 كم أو أكثر
غيوم متفرقة على ارتفاع 2500 قدم
مؤقت
من 18 الساعة 00 UTC إلى 18 الساعة 08 UTC
ريح 5 عقدة من الشمال
نظرية الاحتمالات 30% :
مؤقت
من 18 الساعة 00 UTC إلى 18 الساعة 15 UTC
الرؤية: 3000 متر
غيوم متفرقة على ارتفاع 2000 قدم, مزنة ركامية.
عاصفة رعدية, مطر
أصبح
من 18 الساعة 18 UTC إلى 18 الساعة 20 UTC
ريح 4 عقدةمن اتجاهات متغيرة

TAF: LEPA 172300Z 1800/1824 09009KT 9999 SCT025 TX28/1812Z TN19/1805Z TEMPO 1800/1808 36005KT PROB30 TEMPO 1800/1815 3000 TSRA SCT020CB BECMG 1818/1820 VRB04KT

أرصاد الطقس والتوقعات من أكثر من 4000 مطار (تقارير الطقس للمطار METAR والتنبؤ بالطقس بالمطارTAF).

المحطات المتاحة هي النقط الصفراء والحمراء على الخريطة.

حرك المؤشر فوق النقطة لمعرفة اسم المحطة.

ثم انقر لمعرفة أرصاد وتوقعات الطقس.

لتغيير الخارطة: اضغط على الأزرار الخضراء مع رمز الصليب الأسود للتكبير. على الزر الأخضر مع شرطة للتصغير، أو على الأسهم الخضراء للخرائط المجاورة.


METAR-TAF: